Hlavní strana
METAR-TAF:

METAR-TAF

Letiště :

Quibdó, Kolumbie

zeměpisná šířka: 05-43N, zeměpisná délka: 076-37W, výška: 53 m

Aktuální stav počasí

Zpráva byla vytvořena před 52 minutami, v 11:00 UTC
Bezvětří
Teplota 25°C
Vlhkost vzduchu 94%
Tlak 1011 hPa
Viditelnost: 8000 m
Polojasno ve výšce 1500 ft

METAR: SKUI 241100Z 00000KT 8000 SCT015 25/24 A2984 RMK HZ

Čas: 06:52 (11:52 UTC)


TAF: chybějící

Stav a předpovědi počasí z více než 4 000 letišť (zprávy METAR a TAF).

Červené a žluté tečky na mapě představují dostupné meteorologické stanice.

Když kurzor umístíte na tečku, zobrazí se název stanice.

Pak kliknutím zobrazíte stav a předpověď počasí.

Chcete-li změnit mapu, kliknutím na zelené tlačítko se znaménkem +mapu přiblížíte, kliknutím na zelené tlačítko se znaménkem – mapu oddálíte a kliknutím na zelené šipky přejdete na sousední mapy.


METAR-TAF: